sensor_id;sensor_type;location;lat;lon;timestamp;pressure;altitude;pressure_sealevel;temperature;humidity
68380;BME280;57711;53.196;19.638;2023-04-25T00:00:19;98868.63;;;13.87;55.36
68380;BME280;57711;53.196;19.638;2023-04-25T00:03:06;98864.79;;;13.84;55.45
68380;BME280;57711;53.196;19.638;2023-04-25T00:05:36;98863.10;;;13.83;55.41
68380;BME280;57711;53.196;19.638;2023-04-25T00:08:04;98863.31;;;13.85;55.47
68380;BME280;57711;53.196;19.638;2023-04-25T00:10:32;98861.99;;;13.85;55.48
68380;BME280;57711;53.196;19.638;2023-04-25T00:12:59;98859.87;;;13.86;55.48
68380;BME280;57711;53.196;19.638;2023-04-25T00:15:29;98855.83;;;13.86;55.52
68380;BME280;57711;53.196;19.638;2023-04-25T00:17:57;98850.73;;;13.86;55.74
68380;BME280;57711;53.196;19.638;2023-04-25T00:20:24;98846.98;;;13.86;55.65
68380;BME280;57711;53.196;19.638;2023-04-25T00:22:52;98845.09;;;13.85;55.63
68380;BME280;57711;53.196;19.638;2023-04-25T00:25:21;98846.95;;;13.83;55.75
68380;BME280;57711;53.196;19.638;2023-04-25T00:27:49;98850.12;;;13.84;55.94
68380;BME280;57711;53.196;19.638;2023-04-25T00:30:16;98848.42;;;13.83;55.82
68380;BME280;57711;53.196;19.638;2023-04-25T00:32:43;98846.84;;;13.84;55.72
68380;BME280;57711;53.196;19.638;2023-04-25T00:35:11;98842.29;;;13.87;56.04
68380;BME280;57711;53.196;19.638;2023-04-25T00:37:38;98836.08;;;13.87;55.98
68380;BME280;57711;53.196;19.638;2023-04-25T00:40:06;98834.88;;;13.87;56.06
68380;BME280;57711;53.196;19.638;2023-04-25T00:42:35;98837.81;;;13.88;56.08
68380;BME280;57711;53.196;19.638;2023-04-25T00:45:05;98840.67;;;13.88;55.82
68380;BME280;57711;53.196;19.638;2023-04-25T00:47:33;98837.10;;;13.88;55.98
68380;BME280;57711;53.196;19.638;2023-04-25T00:50:00;98839.88;;;13.87;56.14
68380;BME280;57711;53.196;19.638;2023-04-25T00:52:28;98839.91;;;13.86;56.12
68380;BME280;57711;53.196;19.638;2023-04-25T00:54:55;98839.52;;;13.85;56.28
68380;BME280;57711;53.196;19.638;2023-04-25T00:57:22;98837.51;;;13.82;56.03
68380;BME280;57711;53.196;19.638;2023-04-25T00:59:51;98839.83;;;13.79;56.18
68380;BME280;57711;53.196;19.638;2023-04-25T01:02:19;98840.25;;;13.76;56.14
68380;BME280;57711;53.196;19.638;2023-04-25T01:04:48;98838.19;;;13.75;56.17
68380;BME280;57711;53.196;19.638;2023-04-25T01:07:15;98840.30;;;13.72;56.25
68380;BME280;57711;53.196;19.638;2023-04-25T01:09:43;98841.47;;;13.72;56.19
68380;BME280;57711;53.196;19.638;2023-04-25T01:12:10;98843.55;;;13.71;56.34
68380;BME280;57711;53.196;19.638;2023-04-25T01:14:37;98840.52;;;13.69;56.37
68380;BME280;57711;53.196;19.638;2023-04-25T01:17:05;98840.38;;;13.69;56.60
68380;BME280;57711;53.196;19.638;2023-04-25T01:19:32;98839.82;;;13.68;56.56
68380;BME280;57711;53.196;19.638;2023-04-25T01:21:59;98834.64;;;13.68;56.41
68380;BME280;57711;53.196;19.638;2023-04-25T01:24:31;98833.33;;;13.67;56.50
68380;BME280;57711;53.196;19.638;2023-04-25T01:27:00;98828.84;;;13.68;56.47
68380;BME280;57711;53.196;19.638;2023-04-25T01:29:29;98827.14;;;13.70;56.70
68380;BME280;57711;53.196;19.638;2023-04-25T01:31:57;98823.67;;;13.70;56.60
68380;BME280;57711;53.196;19.638;2023-04-25T01:34:25;98827.34;;;13.69;56.63
68380;BME280;57711;53.196;19.638;2023-04-25T01:36:52;98827.09;;;13.68;56.73
68380;BME280;57711;53.196;19.638;2023-04-25T01:39:21;98828.42;;;13.67;56.66
68380;BME280;57711;53.196;19.638;2023-04-25T01:41:48;98830.27;;;13.67;56.95
68380;BME280;57711;53.196;19.638;2023-04-25T01:44:16;98831.58;;;13.68;56.80
68380;BME280;57711;53.196;19.638;2023-04-25T01:46:43;98831.24;;;13.69;56.87
68380;BME280;57711;53.196;19.638;2023-04-25T01:49:11;98829.82;;;13.69;56.90
68380;BME280;57711;53.196;19.638;2023-04-25T01:51:39;98833.34;;;13.68;56.91
68380;BME280;57711;53.196;19.638;2023-04-25T01:54:08;98837.54;;;13.70;56.98
68380;BME280;57711;53.196;19.638;2023-04-25T01:56:39;98837.65;;;13.72;56.83
68380;BME280;57711;53.196;19.638;2023-04-25T01:59:08;98843.46;;;13.73;57.04
68380;BME280;57711;53.196;19.638;2023-04-25T02:01:35;98845.99;;;13.72;57.19
68380;BME280;57711;53.196;19.638;2023-04-25T02:04:11;98848.77;;;13.69;57.20
68380;BME280;57711;53.196;19.638;2023-04-25T02:06:40;98849.73;;;13.67;57.07
68380;BME280;57711;53.196;19.638;2023-04-25T02:09:07;98853.41;;;13.64;57.21
68380;BME280;57711;53.196;19.638;2023-04-25T02:11:39;98855.58;;;13.59;57.31
68380;BME280;57711;53.196;19.638;2023-04-25T02:14:26;98856.33;;;13.56;57.34
68380;BME280;57711;53.196;19.638;2023-04-25T02:17:06;98851.25;;;13.53;57.22
68380;BME280;57711;53.196;19.638;2023-04-25T02:19:34;98854.73;;;13.53;57.14
68380;BME280;57711;53.196;19.638;2023-04-25T02:22:01;98855.10;;;13.54;57.11
68380;BME280;57711;53.196;19.638;2023-04-25T02:24:28;98854.27;;;13.55;57.31
68380;BME280;57711;53.196;19.638;2023-04-25T02:26:56;98855.23;;;13.56;57.21
68380;BME280;57711;53.196;19.638;2023-04-25T02:29:23;98853.64;;;13.55;57.37
68380;BME280;57711;53.196;19.638;2023-04-25T02:31:50;98850.92;;;13.56;57.46
68380;BME280;57711;53.196;19.638;2023-04-25T02:34:17;98846.20;;;13.54;57.28
68380;BME280;57711;53.196;19.638;2023-04-25T02:36:44;98848.13;;;13.47;57.37
68380;BME280;57711;53.196;19.638;2023-04-25T02:39:11;98845.16;;;13.44;57.28
68380;BME280;57711;53.196;19.638;2023-04-25T02:41:39;98846.83;;;13.40;57.35
68380;BME280;57711;53.196;19.638;2023-04-25T02:44:06;98847.70;;;13.39;57.37
68380;BME280;57711;53.196;19.638;2023-04-25T02:46:33;98841.33;;;13.39;57.39
68380;BME280;57711;53.196;19.638;2023-04-25T02:49:06;98838.90;;;13.38;57.54
68380;BME280;57711;53.196;19.638;2023-04-25T02:51:34;98837.23;;;13.37;57.45
68380;BME280;57711;53.196;19.638;2023-04-25T02:54:01;98842.44;;;13.35;57.43
68380;BME280;57711;53.196;19.638;2023-04-25T02:56:29;98841.15;;;13.32;57.32
68380;BME280;57711;53.196;19.638;2023-04-25T02:58:56;98845.55;;;13.28;57.52
68380;BME280;57711;53.196;19.638;2023-04-25T03:01:24;98844.43;;;13.22;57.58
68380;BME280;57711;53.196;19.638;2023-04-25T03:03:51;98848.18;;;13.18;57.63
68380;BME280;57711;53.196;19.638;2023-04-25T03:06:19;98850.45;;;13.18;57.63
68380;BME280;57711;53.196;19.638;2023-04-25T03:08:46;98848.64;;;13.18;57.50
68380;BME280;57711;53.196;19.638;2023-04-25T03:11:14;98845.98;;;13.19;57.59
68380;BME280;57711;53.196;19.638;2023-04-25T03:13:41;98847.97;;;13.20;57.57
68380;BME280;57711;53.196;19.638;2023-04-25T03:16:09;98845.43;;;13.19;57.73
68380;BME280;57711;53.196;19.638;2023-04-25T03:18:36;98843.76;;;13.13;57.68
68380;BME280;57711;53.196;19.638;2023-04-25T03:21:04;98840.25;;;13.08;57.63
68380;BME280;57711;53.196;19.638;2023-04-25T03:23:31;98844.30;;;13.01;57.76
68380;BME280;57711;53.196;19.638;2023-04-25T03:25:58;98842.77;;;12.96;57.77
68380;BME280;57711;53.196;19.638;2023-04-25T03:28:25;98839.91;;;12.94;57.94
68380;BME280;57711;53.196;19.638;2023-04-25T03:30:54;98839.08;;;12.89;57.73
68380;BME280;57711;53.196;19.638;2023-04-25T03:33:21;98838.60;;;12.86;57.76
68380;BME280;57711;53.196;19.638;2023-04-25T03:35:49;98838.91;;;12.81;57.80
68380;BME280;57711;53.196;19.638;2023-04-25T03:38:17;98839.48;;;12.80;57.97
68380;BME280;57711;53.196;19.638;2023-04-25T03:40:44;98837.45;;;12.75;57.77
68380;BME280;57711;53.196;19.638;2023-04-25T03:43:19;98838.23;;;12.75;57.99
68380;BME280;57711;53.196;19.638;2023-04-25T03:45:54;98842.02;;;12.77;57.94
68380;BME280;57711;53.196;19.638;2023-04-25T03:48:22;98846.33;;;12.76;57.89
68380;BME280;57711;53.196;19.638;2023-04-25T03:50:54;98849.86;;;12.73;57.96
68380;BME280;57711;53.196;19.638;2023-04-25T03:53:21;98849.60;;;12.71;58.12
68380;BME280;57711;53.196;19.638;2023-04-25T03:56:07;98846.58;;;12.72;58.13
68380;BME280;57711;53.196;19.638;2023-04-25T03:58:36;98852.45;;;12.72;58.22
68380;BME280;57711;53.196;19.638;2023-04-25T04:01:04;98852.90;;;12.71;58.22
68380;BME280;57711;53.196;19.638;2023-04-25T04:03:35;98860.02;;;12.68;58.19
68380;BME280;57711;53.196;19.638;2023-04-25T04:06:04;98858.55;;;12.63;58.04
68380;BME280;57711;53.196;19.638;2023-04-25T04:08:35;98860.16;;;12.60;58.04
68380;BME280;57711;53.196;19.638;2023-04-25T04:11:03;98863.29;;;12.60;58.14
68380;BME280;57711;53.196;19.638;2023-04-25T04:13:31;98863.46;;;12.59;58.11
68380;BME280;57711;53.196;19.638;2023-04-25T04:15:59;98868.13;;;12.57;58.24
68380;BME280;57711;53.196;19.638;2023-04-25T04:18:26;98867.21;;;12.55;58.19
68380;BME280;57711;53.196;19.638;2023-04-25T04:20:55;98870.93;;;12.52;58.23
68380;BME280;57711;53.196;19.638;2023-04-25T04:23:26;98871.81;;;12.49;58.19
68380;BME280;57711;53.196;19.638;2023-04-25T04:25:55;98872.63;;;12.45;58.00
68380;BME280;57711;53.196;19.638;2023-04-25T04:28:23;98879.75;;;12.42;58.02
68380;BME280;57711;53.196;19.638;2023-04-25T04:30:55;98880.40;;;12.35;57.96
68380;BME280;57711;53.196;19.638;2023-04-25T04:33:23;98877.77;;;12.33;58.20
68380;BME280;57711;53.196;19.638;2023-04-25T04:35:56;98880.63;;;12.31;58.23
68380;BME280;57711;53.196;19.638;2023-04-25T04:38:23;98886.22;;;12.29;58.03
68380;BME280;57711;53.196;19.638;2023-04-25T04:40:52;98891.29;;;12.24;58.05
68380;BME280;57711;53.196;19.638;2023-04-25T04:43:29;98892.14;;;12.20;58.10
68380;BME280;57711;53.196;19.638;2023-04-25T04:46:04;98893.80;;;12.17;58.26
68380;BME280;57711;53.196;19.638;2023-04-25T04:49:06;98896.33;;;12.14;58.34
68380;BME280;57711;53.196;19.638;2023-04-25T04:51:43;98895.88;;;12.15;58.29
68380;BME280;57711;53.196;19.638;2023-04-25T04:54:32;98895.43;;;12.15;58.13
68380;BME280;57711;53.196;19.638;2023-04-25T04:57:16;98899.17;;;12.09;58.27
68380;BME280;57711;53.196;19.638;2023-04-25T05:00:11;98899.02;;;12.03;58.07
68380;BME280;57711;53.196;19.638;2023-04-25T05:02:57;98897.81;;;11.99;58.22
68380;BME280;57711;53.196;19.638;2023-04-25T05:05:47;98900.52;;;11.95;58.14
68380;BME280;57711;53.196;19.638;2023-04-25T05:08:33;98899.58;;;11.87;58.34
68380;BME280;57711;53.196;19.638;2023-04-25T05:11:19;98904.53;;;11.79;58.11
68380;BME280;57711;53.196;19.638;2023-04-25T05:14:01;98902.91;;;11.72;58.37
68380;BME280;57711;53.196;19.638;2023-04-25T05:16:48;98902.54;;;11.73;58.26
68380;BME280;57711;53.196;19.638;2023-04-25T05:19:22;98897.13;;;11.72;58.52
68380;BME280;57711;53.196;19.638;2023-04-25T05:22:10;98898.63;;;11.74;58.43
68380;BME280;57711;53.196;19.638;2023-04-25T05:24:54;98900.83;;;11.71;58.24
68380;BME280;57711;53.196;19.638;2023-04-25T05:27:30;98901.45;;;11.71;58.21
68380;BME280;57711;53.196;19.638;2023-04-25T05:30:15;98903.69;;;11.72;58.34
68380;BME280;57711;53.196;19.638;2023-04-25T05:33:01;98905.23;;;11.79;58.82
68380;BME280;57711;53.196;19.638;2023-04-25T05:35:29;98907.29;;;11.83;58.60
68380;BME280;57711;53.196;19.638;2023-04-25T05:37:56;98911.45;;;11.84;58.54
68380;BME280;57711;53.196;19.638;2023-04-25T05:40:37;98910.33;;;11.85;58.51
68380;BME280;57711;53.196;19.638;2023-04-25T05:43:11;98913.94;;;11.85;58.59
68380;BME280;57711;53.196;19.638;2023-04-25T05:45:56;98915.63;;;11.86;58.58
68380;BME280;57711;53.196;19.638;2023-04-25T05:48:26;98917.16;;;11.85;58.46
68380;BME280;57711;53.196;19.638;2023-04-25T05:51:20;98919.52;;;11.82;58.68
68380;BME280;57711;53.196;19.638;2023-04-25T05:54:25;98924.63;;;11.79;58.58
68380;BME280;57711;53.196;19.638;2023-04-25T05:56:56;98925.65;;;11.73;58.67
68380;BME280;57711;53.196;19.638;2023-04-25T05:59:23;98929.35;;;11.74;58.65
68380;BME280;57711;53.196;19.638;2023-04-25T06:01:51;98933.70;;;11.77;58.89
68380;BME280;57711;53.196;19.638;2023-04-25T06:04:20;98939.03;;;11.80;58.89
68380;BME280;57711;53.196;19.638;2023-04-25T06:06:48;98936.63;;;11.81;58.71
68380;BME280;57711;53.196;19.638;2023-04-25T06:09:15;98941.58;;;11.79;58.63
68380;BME280;57711;53.196;19.638;2023-04-25T06:11:42;98945.50;;;11.74;58.40
68380;BME280;57711;53.196;19.638;2023-04-25T06:14:10;98946.50;;;11.63;58.32
68380;BME280;57711;53.196;19.638;2023-04-25T06:16:40;98950.05;;;11.58;58.49
68380;BME280;57711;53.196;19.638;2023-04-25T06:19:07;98949.98;;;11.49;58.37
68380;BME280;57711;53.196;19.638;2023-04-25T06:21:34;98952.48;;;11.46;58.60
68380;BME280;57711;53.196;19.638;2023-04-25T06:24:01;98954.41;;;11.45;58.66
68380;BME280;57711;53.196;19.638;2023-04-25T06:26:29;98960.27;;;11.47;58.75
68380;BME280;57711;53.196;19.638;2023-04-25T06:28:56;98961.17;;;11.49;58.72
68380;BME280;57711;53.196;19.638;2023-04-25T06:31:23;98960.33;;;11.45;58.67
68380;BME280;57711;53.196;19.638;2023-04-25T06:33:51;98958.52;;;11.44;58.77
68380;BME280;57711;53.196;19.638;2023-04-25T06:36:23;98956.56;;;11.40;58.64
68380;BME280;57711;53.196;19.638;2023-04-25T06:38:53;98956.63;;;11.41;58.78
68380;BME280;57711;53.196;19.638;2023-04-25T06:41:21;98958.15;;;11.42;58.80
68380;BME280;57711;53.196;19.638;2023-04-25T06:43:48;98951.88;;;11.43;58.82
68380;BME280;57711;53.196;19.638;2023-04-25T06:46:15;98956.13;;;11.50;58.88
68380;BME280;57711;53.196;19.638;2023-04-25T06:48:44;98959.96;;;11.58;58.81
68380;BME280;57711;53.196;19.638;2023-04-25T06:51:11;98958.47;;;11.60;58.98
68380;BME280;57711;53.196;19.638;2023-04-25T06:53:40;98959.14;;;11.62;58.89
68380;BME280;57711;53.196;19.638;2023-04-25T06:56:09;98961.29;;;11.67;58.99
68380;BME280;57711;53.196;19.638;2023-04-25T06:58:52;98965.06;;;11.72;58.87
68380;BME280;57711;53.196;19.638;2023-04-25T07:01:24;98968.80;;;11.71;58.85
68380;BME280;57711;53.196;19.638;2023-04-25T07:03:51;98971.29;;;11.68;58.76
68380;BME280;57711;53.196;19.638;2023-04-25T07:06:19;98972.83;;;11.59;58.72
68380;BME280;57711;53.196;19.638;2023-04-25T07:08:46;98976.77;;;11.47;58.62
68380;BME280;57711;53.196;19.638;2023-04-25T07:11:13;98983.98;;;11.39;58.55
68380;BME280;57711;53.196;19.638;2023-04-25T07:13:40;98985.52;;;11.37;58.56
68380;BME280;57711;53.196;19.638;2023-04-25T07:16:08;98987.49;;;11.34;58.55
68380;BME280;57711;53.196;19.638;2023-04-25T07:18:36;98990.21;;;11.29;58.74
68380;BME280;57711;53.196;19.638;2023-04-25T07:21:03;98989.63;;;11.21;58.47
68380;BME280;57711;53.196;19.638;2023-04-25T07:23:31;98993.54;;;11.19;58.86
68380;BME280;57711;53.196;19.638;2023-04-25T07:26:00;98998.11;;;11.20;58.82
68380;BME280;57711;53.196;19.638;2023-04-25T07:28:28;98994.67;;;11.23;58.73
68380;BME280;57711;53.196;19.638;2023-04-25T07:30:55;98996.56;;;11.29;58.97
68380;BME280;57711;53.196;19.638;2023-04-25T07:33:24;98997.49;;;11.35;58.65
68380;BME280;57711;53.196;19.638;2023-04-25T07:35:52;99002.84;;;11.42;58.87
68380;BME280;57711;53.196;19.638;2023-04-25T07:38:19;99004.83;;;11.50;58.77
68380;BME280;57711;53.196;19.638;2023-04-25T07:40:50;99001.88;;;11.55;58.84
68380;BME280;57711;53.196;19.638;2023-04-25T07:43:17;99003.88;;;11.64;59.10
68380;BME280;57711;53.196;19.638;2023-04-25T07:45:50;99006.77;;;11.69;58.77
68380;BME280;57711;53.196;19.638;2023-04-25T07:48:18;99011.33;;;11.75;58.89
68380;BME280;57711;53.196;19.638;2023-04-25T07:50:46;99015.46;;;11.78;58.90
68380;BME280;57711;53.196;19.638;2023-04-25T07:53:14;99012.97;;;11.82;58.78
68380;BME280;57711;53.196;19.638;2023-04-25T07:55:48;99017.39;;;11.85;58.88
68380;BME280;57711;53.196;19.638;2023-04-25T07:58:17;99018.59;;;11.85;58.80
68380;BME280;57711;53.196;19.638;2023-04-25T08:00:50;99019.84;;;11.87;58.85
68380;BME280;57711;53.196;19.638;2023-04-25T08:03:25;99020.13;;;11.93;58.76
68380;BME280;57711;53.196;19.638;2023-04-25T08:05:53;99022.31;;;11.96;58.80
68380;BME280;57711;53.196;19.638;2023-04-25T08:08:22;99025.23;;;12.02;58.76
68380;BME280;57711;53.196;19.638;2023-04-25T08:10:49;99022.92;;;12.05;58.86
68380;BME280;57711;53.196;19.638;2023-04-25T08:13:17;99022.26;;;12.09;58.81
68380;BME280;57711;53.196;19.638;2023-04-25T08:15:45;99021.49;;;12.13;58.72
68380;BME280;57711;53.196;19.638;2023-04-25T08:18:12;99022.40;;;12.14;59.05
68380;BME280;57711;53.196;19.638;2023-04-25T08:20:43;99027.95;;;12.19;58.79
68380;BME280;57711;53.196;19.638;2023-04-25T08:23:11;99025.77;;;12.24;58.77
68380;BME280;57711;53.196;19.638;2023-04-25T08:25:58;99032.71;;;12.23;58.78
68380;BME280;57711;53.196;19.638;2023-04-25T08:28:26;99032.20;;;12.23;58.75
68380;BME280;57711;53.196;19.638;2023-04-25T08:30:54;99033.33;;;12.24;58.54
68380;BME280;57711;53.196;19.638;2023-04-25T08:33:22;99031.66;;;12.26;58.65
68380;BME280;57711;53.196;19.638;2023-04-25T08:36:18;99037.66;;;12.32;58.74
68380;BME280;57711;53.196;19.638;2023-04-25T08:39:05;99038.13;;;12.33;58.68
68380;BME280;57711;53.196;19.638;2023-04-25T08:41:40;99041.38;;;12.30;58.87
68380;BME280;57711;53.196;19.638;2023-04-25T08:44:10;99039.67;;;12.26;58.65
68380;BME280;57711;53.196;19.638;2023-04-25T08:46:38;99037.17;;;12.23;58.74
68380;BME280;57711;53.196;19.638;2023-04-25T08:49:15;99037.20;;;12.18;58.59
68380;BME280;57711;53.196;19.638;2023-04-25T08:51:46;99038.78;;;12.12;58.69
68380;BME280;57711;53.196;19.638;2023-04-25T08:54:14;99041.45;;;12.09;58.77
68380;BME280;57711;53.196;19.638;2023-04-25T08:57:02;99042.63;;;12.12;58.73
68380;BME280;57711;53.196;19.638;2023-04-25T08:59:32;99045.54;;;12.15;58.76
68380;BME280;57711;53.196;19.638;2023-04-25T09:02:00;99049.98;;;12.15;58.74
68380;BME280;57711;53.196;19.638;2023-04-25T09:04:31;99055.65;;;12.17;58.75
68380;BME280;57711;53.196;19.638;2023-04-25T09:06:58;99058.02;;;12.16;58.82
68380;BME280;57711;53.196;19.638;2023-04-25T09:09:25;99063.93;;;12.10;58.43
68380;BME280;57711;53.196;19.638;2023-04-25T09:11:54;99063.64;;;12.06;58.50
68380;BME280;57711;53.196;19.638;2023-04-25T09:14:23;99065.29;;;12.06;58.54
68380;BME280;57711;53.196;19.638;2023-04-25T09:17:03;99068.09;;;12.07;58.69
68380;BME280;57711;53.196;19.638;2023-04-25T09:19:40;99071.23;;;12.10;58.80
68380;BME280;57711;53.196;19.638;2023-04-25T09:22:29;99071.73;;;12.18;58.71
68380;BME280;57711;53.196;19.638;2023-04-25T09:24:57;99069.92;;;12.23;58.62
68380;BME280;57711;53.196;19.638;2023-04-25T09:27:26;99073.25;;;12.30;58.70
68380;BME280;57711;53.196;19.638;2023-04-25T09:30:15;99070.92;;;12.41;58.82
68380;BME280;57711;53.196;19.638;2023-04-25T09:33:09;99074.47;;;12.51;58.75
68380;BME280;57711;53.196;19.638;2023-04-25T09:35:44;99072.52;;;12.60;58.77
68380;BME280;57711;53.196;19.638;2023-04-25T09:38:42;99072.41;;;12.64;58.63
68380;BME280;57711;53.196;19.638;2023-04-25T09:41:23;99069.09;;;12.74;58.59
68380;BME280;57711;53.196;19.638;2023-04-25T09:43:50;99069.09;;;12.88;58.71
68380;BME280;57711;53.196;19.638;2023-04-25T09:46:18;99072.12;;;12.98;58.45
68380;BME280;57711;53.196;19.638;2023-04-25T09:48:51;99076.77;;;12.98;58.46
68380;BME280;57711;53.196;19.638;2023-04-25T09:51:34;99078.09;;;12.96;58.46
68380;BME280;57711;53.196;19.638;2023-04-25T09:54:01;99081.77;;;12.94;58.20
68380;BME280;57711;53.196;19.638;2023-04-25T09:56:36;99080.58;;;12.89;58.33
68380;BME280;57711;53.196;19.638;2023-04-25T09:59:06;99081.64;;;12.84;58.43
68380;BME280;57711;53.196;19.638;2023-04-25T10:01:36;99085.41;;;12.80;58.29
68380;BME280;57711;53.196;19.638;2023-04-25T10:04:10;99088.65;;;12.73;58.02
68380;BME280;57711;53.196;19.638;2023-04-25T10:06:45;99088.38;;;12.67;58.28
68380;BME280;57711;53.196;19.638;2023-04-25T10:09:15;99088.17;;;12.67;58.22
68380;BME280;57711;53.196;19.638;2023-04-25T10:11:43;99084.80;;;12.75;58.35
68380;BME280;57711;53.196;19.638;2023-04-25T10:14:12;99082.97;;;12.82;58.21
68380;BME280;57711;53.196;19.638;2023-04-25T10:16:41;99083.19;;;12.96;58.44
68380;BME280;57711;53.196;19.638;2023-04-25T10:19:09;99087.90;;;13.07;58.12
68380;BME280;57711;53.196;19.638;2023-04-25T10:21:46;99086.30;;;13.11;58.20
68380;BME280;57711;53.196;19.638;2023-04-25T10:24:15;99091.06;;;13.15;58.28
68380;BME280;57711;53.196;19.638;2023-04-25T10:26:43;99090.93;;;13.18;58.18
68380;BME280;57711;53.196;19.638;2023-04-25T10:29:10;99089.77;;;13.18;58.14
68380;BME280;57711;53.196;19.638;2023-04-25T10:31:45;99089.40;;;13.20;58.15
68380;BME280;57711;53.196;19.638;2023-04-25T10:34:13;99088.70;;;13.21;58.06
68380;BME280;57711;53.196;19.638;2023-04-25T10:36:42;99086.23;;;13.24;58.19
68380;BME280;57711;53.196;19.638;2023-04-25T10:39:09;99087.46;;;13.26;58.05
68380;BME280;57711;53.196;19.638;2023-04-25T10:41:57;99092.66;;;13.28;58.32
68380;BME280;57711;53.196;19.638;2023-04-25T10:44:28;99094.27;;;13.28;58.21
68380;BME280;57711;53.196;19.638;2023-04-25T10:46:57;99097.77;;;13.28;58.21
68380;BME280;57711;53.196;19.638;2023-04-25T10:49:42;99098.11;;;13.28;58.18
68380;BME280;57711;53.196;19.638;2023-04-25T10:52:24;99096.91;;;13.29;58.28
68380;BME280;57711;53.196;19.638;2023-04-25T10:54:53;99095.10;;;13.30;58.12
68380;BME280;57711;53.196;19.638;2023-04-25T10:57:41;99099.05;;;13.32;58.02
68380;BME280;57711;53.196;19.638;2023-04-25T11:00:27;99098.98;;;13.31;57.80
68380;BME280;57711;53.196;19.638;2023-04-25T11:03:16;99101.22;;;13.34;58.23
68380;BME280;57711;53.196;19.638;2023-04-25T11:05:45;99100.37;;;13.46;58.25
68380;BME280;57711;53.196;19.638;2023-04-25T11:08:49;99098.54;;;13.65;58.00
68380;BME280;57711;53.196;19.638;2023-04-25T11:11:17;99102.97;;;13.75;57.70
68380;BME280;57711;53.196;19.638;2023-04-25T11:13:49;99105.19;;;13.78;57.63
68380;BME280;57711;53.196;19.638;2023-04-25T11:16:17;99099.76;;;13.76;57.67
68380;BME280;57711;53.196;19.638;2023-04-25T11:18:57;99103.29;;;13.74;57.74
68380;BME280;57711;53.196;19.638;2023-04-25T11:21:27;99101.59;;;13.75;57.86
68380;BME280;57711;53.196;19.638;2023-04-25T11:23:56;99102.83;;;13.77;57.64
68380;BME280;57711;53.196;19.638;2023-04-25T11:26:24;99102.80;;;13.77;57.56
68380;BME280;57711;53.196;19.638;2023-04-25T11:28:51;99105.59;;;13.79;57.62
68380;BME280;57711;53.196;19.638;2023-04-25T11:31:21;99104.60;;;13.86;57.66
68380;BME280;57711;53.196;19.638;2023-04-25T11:33:49;99104.00;;;13.94;57.71
68380;BME280;57711;53.196;19.638;2023-04-25T11:36:16;99106.07;;;14.01;57.68
68380;BME280;57711;53.196;19.638;2023-04-25T11:38:44;99104.20;;;14.07;57.68
68380;BME280;57711;53.196;19.638;2023-04-25T11:41:11;99110.23;;;14.13;57.47
68380;BME280;57711;53.196;19.638;2023-04-25T11:43:38;99107.08;;;14.16;57.33
68380;BME280;57711;53.196;19.638;2023-04-25T11:46:09;99106.05;;;14.23;57.49
68380;BME280;57711;53.196;19.638;2023-04-25T11:48:41;99108.27;;;14.27;57.26
68380;BME280;57711;53.196;19.638;2023-04-25T11:51:08;99101.83;;;14.22;57.13
68380;BME280;57711;53.196;19.638;2023-04-25T11:53:36;99105.10;;;14.25;57.29
68380;BME280;57711;53.196;19.638;2023-04-25T11:56:09;99100.25;;;14.32;57.12
68380;BME280;57711;53.196;19.638;2023-04-25T11:58:57;99103.54;;;14.34;57.19
68380;BME280;57711;53.196;19.638;2023-04-25T12:01:29;99103.91;;;14.33;57.00
68380;BME280;57711;53.196;19.638;2023-04-25T12:04:15;99100.08;;;14.32;57.03
68380;BME280;57711;53.196;19.638;2023-04-25T12:06:45;99103.77;;;14.28;56.97
68380;BME280;57711;53.196;19.638;2023-04-25T12:09:19;99102.80;;;14.22;56.77
68380;BME280;57711;53.196;19.638;2023-04-25T12:11:52;99105.39;;;14.12;56.88
68380;BME280;57711;53.196;19.638;2023-04-25T12:14:22;99104.69;;;14.03;56.93
68380;BME280;57711;53.196;19.638;2023-04-25T12:16:51;99110.59;;;13.96;57.09
68380;BME280;57711;53.196;19.638;2023-04-25T12:19:19;99111.07;;;13.89;56.89
68380;BME280;57711;53.196;19.638;2023-04-25T12:21:47;99114.57;;;13.79;56.95
68380;BME280;57711;53.196;19.638;2023-04-25T12:24:26;99112.02;;;13.70;56.76
68380;BME280;57711;53.196;19.638;2023-04-25T12:27:20;99115.31;;;13.64;56.89
68380;BME280;57711;53.196;19.638;2023-04-25T12:29:55;99111.98;;;13.59;56.99
68380;BME280;57711;53.196;19.638;2023-04-25T12:32:23;99111.69;;;13.56;57.01
68380;BME280;57711;53.196;19.638;2023-04-25T12:34:50;99113.74;;;13.54;56.85
68380;BME280;57711;53.196;19.638;2023-04-25T12:37:17;99112.98;;;13.51;56.88
68380;BME280;57711;53.196;19.638;2023-04-25T12:39:45;99116.77;;;13.50;56.87
68380;BME280;57711;53.196;19.638;2023-04-25T12:42:12;99113.34;;;13.47;56.97
68380;BME280;57711;53.196;19.638;2023-04-25T12:44:39;99110.62;;;13.45;57.01
68380;BME280;57711;53.196;19.638;2023-04-25T12:47:08;99109.32;;;13.42;56.90
68380;BME280;57711;53.196;19.638;2023-04-25T12:49:35;99109.49;;;13.38;56.78
68380;BME280;57711;53.196;19.638;2023-04-25T12:52:02;99112.42;;;13.35;56.96
68380;BME280;57711;53.196;19.638;2023-04-25T12:54:29;99112.52;;;13.34;57.16
68380;BME280;57711;53.196;19.638;2023-04-25T12:56:57;99109.80;;;13.34;56.73
68380;BME280;57711;53.196;19.638;2023-04-25T12:59:24;99111.19;;;13.34;56.93
68380;BME280;57711;53.196;19.638;2023-04-25T13:01:51;99111.45;;;13.35;56.77
68380;BME280;57711;53.196;19.638;2023-04-25T13:04:18;99113.39;;;13.33;56.64
68380;BME280;57711;53.196;19.638;2023-04-25T13:06:48;99110.70;;;13.31;56.67
68380;BME280;57711;53.196;19.638;2023-04-25T13:09:15;99108.63;;;13.30;56.65
68380;BME280;57711;53.196;19.638;2023-04-25T13:11:42;99110.56;;;13.29;56.66